createdAt,value
2019-05-02T00:01:48.128Z,25.47
2019-05-02T00:04:20.029Z,21.53
2019-05-02T00:07:14.338Z,20.40
2019-05-02T00:09:48.491Z,21.40
2019-05-02T00:12:18.059Z,21.27
2019-05-02T00:14:49.195Z,19.57
2019-05-02T00:17:25.660Z,23.40
2019-05-02T00:20:21.041Z,21.77
2019-05-02T00:22:54.777Z,25.30
2019-05-02T00:25:26.967Z,20.57
2019-05-02T00:27:56.228Z,22.67
2019-05-02T00:30:36.663Z,20.77
2019-05-02T00:33:16.627Z,20.23
2019-05-02T00:35:52.968Z,22.50
2019-05-02T00:38:21.142Z,23.30
2019-05-02T00:40:49.167Z,21.37
2019-05-02T00:43:22.511Z,20.43
2019-05-02T00:46:00.942Z,21.87
2019-05-02T00:48:38.209Z,20.07
2019-05-02T00:51:07.560Z,18.27
2019-05-02T00:53:35.324Z,18.80
2019-05-02T00:56:10.345Z,17.17
2019-05-02T00:58:38.375Z,19.43
2019-05-02T01:01:29.475Z,19.70
2019-05-02T01:04:06.018Z,22.07
2019-05-02T01:06:36.845Z,20.13
2019-05-02T01:09:14.303Z,21.57
2019-05-02T01:11:46.816Z,17.27
2019-05-02T01:14:27.086Z,20.77
2019-05-02T01:16:54.396Z,20.37
2019-05-02T01:19:25.498Z,21.20
2019-05-02T01:21:55.916Z,19.77
2019-05-02T01:24:25.362Z,19.87
2019-05-02T01:27:15.776Z,19.83
2019-05-02T01:30:01.625Z,23.10
2019-05-02T01:32:40.794Z,22.03
2019-05-02T01:35:20.970Z,20.60
2019-05-02T01:38:10.915Z,20.80
2019-05-02T01:40:40.412Z,20.43
2019-05-02T01:43:25.780Z,22.27
2019-05-02T01:45:57.770Z,18.37
2019-05-02T01:48:26.413Z,20.53
2019-05-02T01:50:55.567Z,19.80
2019-05-02T01:53:29.357Z,18.50
2019-05-02T01:55:57.389Z,19.27
2019-05-02T01:58:28.361Z,18.67
2019-05-02T02:01:02.874Z,18.43
2019-05-02T02:03:31.037Z,18.53
2019-05-02T02:06:02.764Z,20.10
2019-05-02T02:08:32.569Z,20.27
2019-05-02T02:11:01.028Z,19.17
2019-05-02T02:13:31.251Z,17.23
2019-05-02T02:16:04.574Z,16.23
2019-05-02T02:18:32.901Z,16.83
2019-05-02T02:21:25.617Z,19.73
2019-05-02T02:23:55.532Z,19.17
2019-05-02T02:26:23.907Z,17.93
2019-05-02T02:28:56.070Z,22.43
2019-05-02T02:31:26.173Z,18.87
2019-05-02T02:33:54.159Z,20.73
2019-05-02T02:36:31.056Z,18.83
2019-05-02T02:38:57.248Z,18.37
2019-05-02T02:41:25.294Z,24.13
2019-05-02T02:44:11.423Z,17.47
2019-05-02T02:46:44.637Z,18.40
2019-05-02T02:49:21.483Z,20.83
2019-05-02T02:51:45.228Z,17.87
2019-05-02T02:54:14.813Z,16.57
2019-05-02T02:56:43.146Z,17.33
2019-05-02T02:59:19.346Z,17.57
2019-05-02T03:01:43.266Z,15.53
2019-05-02T03:04:12.159Z,19.10
2019-05-02T03:06:44.779Z,16.47
2019-05-02T03:09:13.821Z,16.83
2019-05-02T03:12:08.065Z,20.47
2019-05-02T03:14:47.063Z,17.57
2019-05-02T03:17:13.285Z,20.70
2019-05-02T03:19:43.623Z,21.73
2019-05-02T03:22:11.552Z,19.47
2019-05-02T03:24:44.423Z,21.83
2019-05-02T03:27:37.087Z,22.23
2019-05-02T03:34:01.247Z,20.63
2019-05-02T03:36:35.732Z,20.23
2019-05-02T03:39:06.640Z,26.97
2019-05-02T03:41:30.767Z,21.67
2019-05-02T03:44:10.975Z,23.60
2019-05-02T03:46:33.381Z,22.43
2019-05-02T03:49:25.913Z,21.67
2019-05-02T03:52:43.827Z,23.83
2019-05-02T03:55:33.879Z,22.87
2019-05-02T03:58:13.265Z,22.30
2019-05-02T04:00:35.944Z,23.00
2019-05-02T04:03:04.028Z,21.00
2019-05-02T04:05:33.729Z,22.43
2019-05-02T04:08:05.223Z,24.87
2019-05-02T04:11:13.934Z,23.00
2019-05-02T04:13:42.278Z,23.40
2019-05-02T04:16:15.497Z,24.50
2019-05-02T04:18:49.103Z,20.03
2019-05-02T04:21:16.580Z,22.47
2019-05-02T04:23:48.678Z,21.40
2019-05-02T04:26:17.069Z,19.67
2019-05-02T04:28:51.630Z,18.53
2019-05-02T04:31:17.237Z,19.27
2019-05-02T04:33:45.009Z,20.53
2019-05-02T04:36:17.724Z,19.00
2019-05-02T04:38:48.769Z,19.40
2019-05-02T04:41:21.291Z,17.87
2019-05-02T04:43:54.413Z,16.07
2019-05-02T04:46:22.026Z,19.20
2019-05-02T04:48:52.500Z,17.17
2019-05-02T04:51:20.986Z,19.30
2019-05-02T04:53:51.586Z,19.07
2019-05-02T04:56:24.133Z,22.27
2019-05-02T04:58:54.304Z,20.30
2019-05-02T05:01:43.285Z,22.53
2019-05-02T05:04:04.753Z,19.70
2019-05-02T05:06:33.958Z,19.10
2019-05-02T05:09:29.073Z,23.73
2019-05-02T05:12:14.083Z,26.00
2019-05-02T05:14:44.619Z,24.23
2019-05-02T05:17:24.938Z,22.63
2019-05-02T05:19:51.252Z,22.00
2019-05-02T05:22:18.945Z,21.47
2019-05-02T05:25:07.484Z,20.80
2019-05-02T05:27:39.825Z,22.60
2019-05-02T05:30:37.004Z,19.80
2019-05-02T05:33:03.487Z,24.53
2019-05-02T05:35:43.327Z,23.70
2019-05-02T05:38:15.559Z,19.40
2019-05-02T05:41:47.366Z,20.47
2019-05-02T05:44:58.292Z,22.30
2019-05-02T05:47:56.871Z,21.73
2019-05-02T05:50:22.118Z,22.80
2019-05-02T05:53:37.341Z,21.50
2019-05-02T05:56:42.877Z,22.00
2019-05-02T05:59:32.111Z,23.43
2019-05-02T06:02:12.687Z,25.03
2019-05-02T06:04:41.481Z,21.93
2019-05-02T06:07:22.935Z,21.77
2019-05-02T06:10:09.970Z,22.73
2019-05-02T06:12:38.293Z,22.37
2019-05-02T06:15:12.638Z,22.73
2019-05-02T06:18:00.026Z,21.40
2019-05-02T06:20:33.091Z,20.87
2019-05-02T06:23:05.982Z,24.30
2019-05-02T06:25:36.756Z,24.43
2019-05-02T06:28:20.000Z,30.33
2019-05-02T06:31:07.160Z,26.97
2019-05-02T06:33:32.613Z,28.53
2019-05-02T06:39:44.351Z,26.80
2019-05-02T06:42:37.822Z,29.20
2019-05-02T06:45:40.492Z,27.20
2019-05-02T06:48:16.864Z,32.50
2019-05-02T06:55:38.735Z,32.87
2019-05-02T06:58:37.121Z,41.67
2019-05-02T07:01:21.304Z,38.50
2019-05-02T07:08:14.700Z,46.80
2019-05-02T07:10:48.837Z,43.53
2019-05-02T07:13:18.328Z,49.47
2019-05-02T07:19:30.266Z,57.67
2019-05-02T07:22:07.462Z,55.13
2019-05-02T07:25:06.974Z,68.73
2019-05-02T07:27:51.940Z,61.10
2019-05-02T07:30:40.686Z,64.67
2019-05-02T07:33:32.219Z,68.73
2019-05-02T07:36:38.938Z,70.33
2019-05-02T07:40:02.151Z,70.50
2019-05-02T07:42:59.695Z,71.30
2019-05-02T07:46:10.859Z,68.50
2019-05-02T07:49:58.154Z,72.97
2019-05-02T07:56:03.741Z,74.37
2019-05-02T07:59:18.756Z,75.90
2019-05-02T08:05:30.042Z,69.33
2019-05-02T08:08:03.509Z,68.23
2019-05-02T08:10:34.892Z,67.80
2019-05-02T08:13:16.993Z,67.97
2019-05-02T08:15:39.705Z,67.37
2019-05-02T08:18:15.836Z,69.13
2019-05-02T08:20:51.042Z,67.43
2019-05-02T08:23:27.892Z,70.37
2019-05-02T08:25:57.828Z,64.93
2019-05-02T08:28:42.371Z,69.63
2019-05-02T08:31:13.533Z,65.13
2019-05-02T08:34:14.392Z,68.27
2019-05-02T08:36:38.499Z,69.97
2019-05-02T08:39:25.947Z,64.97
2019-05-02T08:41:56.333Z,70.83
2019-05-02T08:44:50.657Z,67.50
2019-05-02T08:47:43.849Z,70.90
2019-05-02T08:50:33.415Z,77.27
2019-05-02T08:53:01.869Z,63.43
2019-05-02T08:55:30.796Z,62.57
2019-05-02T08:57:59.559Z,62.13
2019-05-02T09:00:32.259Z,62.27
2019-05-02T09:03:08.674Z,59.67
2019-05-02T09:05:45.418Z,55.17
2019-05-02T09:08:21.800Z,63.50
2019-05-02T09:11:13.982Z,61.60
2019-05-02T09:13:42.183Z,61.03
2019-05-02T09:16:12.864Z,56.37
2019-05-02T09:18:50.047Z,59.13
2019-05-02T09:21:19.163Z,60.43
2019-05-02T09:23:51.754Z,62.83
2019-05-02T09:26:33.214Z,64.30
2019-05-02T09:28:56.319Z,59.10
2019-05-02T09:31:58.904Z,59.57
2019-05-02T09:34:28.922Z,59.97
2019-05-02T09:37:02.648Z,62.43
2019-05-02T09:43:52.393Z,60.47
2019-05-02T09:49:48.933Z,59.67
2019-05-02T09:56:08.649Z,62.97
2019-05-02T09:58:41.517Z,61.07
2019-05-02T10:01:31.611Z,59.93
2019-05-02T10:04:12.008Z,57.47
2019-05-02T10:06:43.140Z,54.67
2019-05-02T10:09:25.735Z,55.93
2019-05-02T10:12:52.546Z,63.40
2019-05-02T10:15:22.246Z,55.10
2019-05-02T10:18:07.524Z,50.93
2019-05-02T10:24:52.473Z,50.87
2019-05-02T10:28:14.794Z,54.33
2019-05-02T10:30:52.706Z,48.00
2019-05-02T10:33:22.640Z,48.80
2019-05-02T10:39:18.476Z,48.27
2019-05-02T10:41:48.487Z,41.10
2019-05-02T10:45:13.036Z,45.07
2019-05-02T10:51:34.833Z,44.70
2019-05-02T10:54:07.225Z,45.57
2019-05-02T10:56:42.242Z,42.57
2019-05-02T10:59:11.855Z,45.67
2019-05-02T11:02:32.841Z,39.67
2019-05-02T11:05:31.289Z,39.57
2019-05-02T11:15:42.606Z,42.23
2019-05-02T11:18:40.401Z,39.63
2019-05-02T11:21:55.361Z,42.27
2019-05-02T11:24:33.707Z,37.37
2019-05-02T11:27:12.842Z,36.00
2019-05-02T11:29:48.256Z,37.23
2019-05-02T11:32:32.881Z,33.87
2019-05-02T11:35:02.960Z,30.83
2019-05-02T11:42:27.459Z,33.13
2019-05-02T11:45:13.518Z,38.20
2019-05-02T11:48:13.985Z,40.83
2019-05-02T11:51:12.760Z,33.97
2019-05-02T11:54:08.205Z,36.47
2019-05-02T11:56:49.189Z,35.50
2019-05-02T11:59:37.270Z,27.87
2019-05-02T12:02:37.197Z,28.07
2019-05-02T12:05:18.320Z,30.27
2019-05-02T12:07:47.097Z,31.53
2019-05-02T12:10:15.344Z,27.83
2019-05-02T12:12:49.272Z,31.47
2019-05-02T12:15:18.372Z,32.53
2019-05-02T12:18:02.583Z,34.20
2019-05-02T12:20:42.562Z,28.47
2019-05-02T12:23:14.274Z,31.77
2019-05-02T12:25:42.735Z,31.93
2019-05-02T12:28:14.529Z,34.80
2019-05-02T12:30:42.525Z,35.63
2019-05-02T12:33:33.704Z,36.43
2019-05-02T12:40:09.465Z,34.23
2019-05-02T12:42:45.151Z,39.07
2019-05-02T12:45:21.837Z,35.97
2019-05-02T12:47:55.570Z,35.87
2019-05-02T12:50:23.629Z,35.47
2019-05-02T13:00:12.724Z,32.83
2019-05-02T13:03:16.650Z,32.80
2019-05-02T13:06:04.441Z,31.83
2019-05-02T13:13:12.880Z,28.23
2019-05-02T13:16:28.395Z,26.17
2019-05-02T13:26:29.434Z,26.27
2019-05-02T13:29:07.221Z,21.90
2019-05-02T13:31:52.886Z,23.50
2019-05-02T13:34:54.085Z,23.17
2019-05-02T13:38:06.410Z,24.40
2019-05-02T13:40:57.336Z,21.50
2019-05-02T13:44:21.857Z,22.10
2019-05-02T13:47:02.577Z,22.43
2019-05-02T13:49:54.090Z,27.40
2019-05-02T13:53:03.781Z,25.27
2019-05-02T13:56:17.719Z,22.93
2019-05-02T13:58:46.054Z,26.63
2019-05-02T14:01:39.534Z,26.03
2019-05-02T14:04:24.718Z,28.83
2019-05-02T14:06:54.105Z,27.30
2019-05-02T14:09:41.205Z,24.60
2019-05-02T14:16:43.131Z,22.53
2019-05-02T14:19:31.952Z,24.87
2019-05-02T14:22:04.087Z,23.27
2019-05-02T14:24:37.054Z,26.17
2019-05-02T14:27:22.214Z,26.43
2019-05-02T14:29:52.930Z,27.03
2019-05-02T14:32:53.063Z,27.60
2019-05-02T14:35:42.586Z,23.67
2019-05-02T14:38:57.145Z,26.30
2019-05-02T14:41:45.897Z,22.63
2019-05-02T14:44:36.195Z,27.37
2019-05-02T14:47:02.804Z,24.57
2019-05-02T14:49:37.759Z,25.23
2019-05-02T14:52:07.610Z,22.43
2019-05-02T14:54:37.998Z,21.30
2019-05-02T14:57:27.168Z,19.63
2019-05-02T14:59:59.411Z,17.77
2019-05-02T15:02:45.047Z,18.80
2019-05-02T15:06:06.999Z,18.20
2019-05-02T15:09:57.077Z,17.00
2019-05-02T15:22:15.092Z,15.67
2019-05-02T15:24:50.155Z,14.60
2019-05-02T15:27:25.653Z,18.33
2019-05-02T15:30:06.743Z,15.07
2019-05-02T15:33:17.103Z,14.97
2019-05-02T15:38:45.630Z,16.23
2019-05-02T15:41:15.435Z,15.63
2019-05-02T15:43:52.205Z,18.67
2019-05-02T15:46:40.041Z,18.10
2019-05-02T15:49:41.738Z,18.47
2019-05-02T15:52:57.317Z,20.83
2019-05-02T15:55:45.291Z,22.13
2019-05-02T15:58:37.727Z,20.47
2019-05-02T16:01:47.778Z,18.43
2019-05-02T16:04:24.159Z,18.10
2019-05-02T16:07:00.379Z,18.07
2019-05-02T16:10:22.217Z,19.60
2019-05-02T16:13:33.015Z,18.90
2019-05-02T16:17:03.688Z,17.77
2019-05-02T16:23:18.996Z,20.60
2019-05-02T16:26:02.059Z,25.77
2019-05-02T16:29:28.063Z,20.87
2019-05-02T16:32:37.887Z,20.60
2019-05-02T16:35:30.898Z,20.13
2019-05-02T16:38:19.234Z,24.97
2019-05-02T16:41:04.008Z,20.60
2019-05-02T16:48:04.698Z,19.80
2019-05-02T16:50:43.537Z,14.13
2019-05-02T16:53:26.047Z,17.10
2019-05-02T16:56:07.080Z,18.30
2019-05-02T16:58:58.266Z,16.73
2019-05-02T17:01:46.937Z,18.63
2019-05-02T17:04:34.823Z,15.97
2019-05-02T17:07:27.760Z,16.73
2019-05-02T17:10:21.753Z,17.77
2019-05-02T17:13:03.885Z,17.13
2019-05-02T17:15:37.373Z,16.40
2019-05-02T17:18:18.353Z,17.37
2019-05-02T17:20:57.149Z,14.73
2019-05-02T17:23:37.502Z,15.57
2019-05-02T17:26:12.316Z,18.50
2019-05-02T17:28:43.374Z,15.27
2019-05-02T17:31:22.981Z,13.73
2019-05-02T17:34:23.054Z,15.23
2019-05-02T17:37:52.471Z,18.90
2019-05-02T17:40:36.339Z,15.23
2019-05-02T17:43:15.622Z,13.23
2019-05-02T17:45:58.622Z,12.83
2019-05-02T17:48:37.469Z,12.10
2019-05-02T17:51:14.142Z,12.37
2019-05-02T17:53:50.145Z,12.77
2019-05-02T17:56:23.193Z,13.80
2019-05-02T17:58:58.341Z,11.80
2019-05-02T18:01:35.293Z,14.00
2019-05-02T18:04:06.979Z,15.07
2019-05-02T18:06:35.813Z,16.10
2019-05-02T18:09:08.535Z,15.33
2019-05-02T18:11:48.885Z,14.80
2019-05-02T18:14:34.155Z,13.40
2019-05-02T18:17:19.172Z,12.13
2019-05-02T18:20:08.897Z,13.43
2019-05-02T18:22:39.909Z,11.63
2019-05-02T18:25:57.248Z,13.70
2019-05-02T18:28:46.208Z,14.23
2019-05-02T18:31:42.122Z,14.77
2019-05-02T18:34:14.344Z,14.80
2019-05-02T18:37:03.086Z,15.30
2019-05-02T18:39:49.904Z,15.57
2019-05-02T18:42:16.629Z,15.97
2019-05-02T18:45:09.485Z,14.73
2019-05-02T18:47:47.094Z,15.77
2019-05-02T18:50:50.009Z,12.30
2019-05-02T18:53:27.681Z,12.93
2019-05-02T18:56:05.534Z,14.13
2019-05-02T18:58:41.463Z,10.97
2019-05-02T19:08:29.110Z,14.03
2019-05-02T19:11:12.800Z,13.67
2019-05-02T19:14:11.654Z,14.40
2019-05-02T19:16:42.524Z,14.20
2019-05-02T19:19:16.781Z,15.13
2019-05-02T19:21:48.475Z,12.97
2019-05-02T19:24:16.549Z,13.53
2019-05-02T19:26:56.351Z,12.33
2019-05-02T19:29:31.669Z,17.07
2019-05-02T19:32:02.114Z,14.17
2019-05-02T19:35:02.532Z,12.80
2019-05-02T19:38:24.350Z,12.63
2019-05-02T19:40:52.764Z,12.20
2019-05-02T19:43:23.044Z,14.37
2019-05-02T19:46:02.757Z,13.23
2019-05-02T19:48:33.013Z,14.13
2019-05-02T19:51:03.626Z,11.50
2019-05-02T19:54:21.721Z,14.00
2019-05-02T19:57:26.242Z,13.40
2019-05-02T20:00:52.574Z,12.83
2019-05-02T20:08:02.751Z,13.77
2019-05-02T20:10:56.833Z,12.17
2019-05-02T20:14:00.297Z,11.57
2019-05-02T20:16:45.877Z,11.93
2019-05-02T20:19:23.147Z,11.37
2019-05-02T20:22:07.057Z,13.50
2019-05-02T20:25:03.020Z,12.93
2019-05-02T20:27:34.430Z,14.20
2019-05-02T20:30:22.388Z,14.23
2019-05-02T20:32:53.283Z,12.10
2019-05-02T20:35:25.487Z,13.67
2019-05-02T20:38:01.550Z,13.17
2019-05-02T20:40:29.158Z,15.17
2019-05-02T20:43:07.406Z,12.50
2019-05-02T20:45:39.310Z,12.17
2019-05-02T20:48:11.783Z,12.73
2019-05-02T20:50:42.868Z,15.40
2019-05-02T20:53:14.926Z,13.07
2019-05-02T20:55:52.315Z,14.17
2019-05-02T20:58:22.074Z,13.37
2019-05-02T21:01:05.431Z,13.67
2019-05-02T21:03:32.015Z,15.57
2019-05-02T21:06:37.554Z,16.40
2019-05-02T21:09:24.229Z,17.80
2019-05-02T21:12:06.276Z,17.67
2019-05-02T21:14:36.547Z,22.53
2019-05-02T21:17:12.815Z,22.10
2019-05-02T21:19:42.819Z,22.93
2019-05-02T21:22:22.253Z,21.63
2019-05-02T21:29:05.080Z,24.43
2019-05-02T21:31:37.331Z,25.40
2019-05-02T21:34:08.161Z,25.07
2019-05-02T21:36:37.367Z,24.60
2019-05-02T21:39:11.880Z,26.43
2019-05-02T21:41:55.098Z,23.43
2019-05-02T21:44:34.278Z,26.83
2019-05-02T21:47:05.890Z,23.20
2019-05-02T21:49:42.970Z,23.27
2019-05-02T21:52:23.579Z,24.13
2019-05-02T21:55:05.606Z,23.37
2019-05-02T21:57:36.257Z,23.17
2019-05-02T22:00:11.872Z,26.63
2019-05-02T22:02:42.666Z,24.27
2019-05-02T22:05:14.974Z,20.37
2019-05-02T22:07:44.921Z,25.37
2019-05-02T22:10:14.706Z,21.70
2019-05-02T22:12:51.725Z,22.57
2019-05-02T22:15:27.548Z,24.10
2019-05-02T22:17:55.619Z,21.50
2019-05-02T22:20:25.717Z,22.60
2019-05-02T22:22:57.731Z,22.33
2019-05-02T22:25:27.065Z,24.40
2019-05-02T22:27:56.929Z,21.53
2019-05-02T22:30:25.009Z,22.33
2019-05-02T22:32:59.770Z,20.57
2019-05-02T22:35:28.320Z,21.13
2019-05-02T22:38:04.751Z,22.40
2019-05-02T22:40:36.039Z,19.23
2019-05-02T22:43:13.030Z,20.60
2019-05-02T22:45:41.820Z,21.70
2019-05-02T22:48:22.885Z,19.43
2019-05-02T22:51:05.507Z,21.90
2019-05-02T22:53:41.685Z,19.90
2019-05-02T22:56:25.744Z,25.23
2019-05-02T22:58:57.590Z,23.37
2019-05-02T23:01:32.376Z,28.13
2019-05-02T23:04:09.587Z,25.10
2019-05-02T23:06:43.980Z,27.00
2019-05-02T23:09:19.162Z,23.37
2019-05-02T23:11:53.293Z,24.23
2019-05-02T23:14:25.519Z,21.13
2019-05-02T23:16:55.462Z,21.27
2019-05-02T23:19:36.315Z,16.60
2019-05-02T23:22:08.660Z,17.87
2019-05-02T23:25:05.609Z,18.80
2019-05-02T23:28:02.562Z,17.27
2019-05-02T23:30:36.390Z,15.63
2019-05-02T23:33:12.948Z,14.93
2019-05-02T23:35:46.769Z,14.83
2019-05-02T23:38:27.689Z,15.73
2019-05-02T23:41:02.139Z,13.20
2019-05-02T23:43:39.352Z,15.47
2019-05-02T23:46:29.952Z,13.93
2019-05-02T23:49:02.097Z,14.73
2019-05-02T23:51:33.162Z,14.63
2019-05-02T23:54:03.002Z,14.27
2019-05-02T23:56:32.563Z,17.17
2019-05-02T23:59:02.947Z,14.77
